Tobias, Nebraska
Current Conditions -  °F | °C
As of 2:55 PM on Tuesday 27 Jan 2015 (Local Time) from KHJH Reporting Station
Clear Clear  
Wind Chill: 63°   Ceiling: Unl
Heat Index: 63°   Visibility: 10mi
Dew Point: 30°   Wind: 12mph
Humidity: 29%   Direction: 170°S
Pressure: 29.98"   Gusts: 23mph
Location:  40.42°N, 97.34°W
Report Text: KHJH 272055Z AUTO 17010G20KT 10SM CLR 17/M01 A2998 RMK AO2 T01711013
Loading
Personal Weather Stations






























Interactive Weather Map New forecast layout! Learn more

10-Day Weather Forecast

Advertisements
Track Severe Weather on mobile